createdAt,value
2018-03-08T00:00:06.267Z,2.62
2018-03-08T00:02:35.134Z,2.30
2018-03-08T00:05:03.629Z,1.85
2018-03-08T00:07:32.190Z,2.33
2018-03-08T00:09:59.724Z,2.00
2018-03-08T00:12:27.256Z,2.42
2018-03-08T00:14:55.178Z,2.33
2018-03-08T00:17:23.672Z,2.12
2018-03-08T00:19:51.896Z,2.60
2018-03-08T00:22:20.020Z,2.50
2018-03-08T00:24:48.888Z,2.05
2018-03-08T00:27:18.096Z,2.30
2018-03-08T00:29:45.784Z,1.90
2018-03-08T00:32:15.058Z,2.20
2018-03-08T00:34:42.797Z,2.17
2018-03-08T00:37:14.059Z,2.05
2018-03-08T00:39:41.879Z,2.17
2018-03-08T00:42:09.626Z,2.22
2018-03-08T00:47:39.670Z,2.40
2018-03-08T00:50:07.186Z,1.85
2018-03-08T00:52:34.681Z,1.62
2018-03-08T00:55:14.082Z,2.30
2018-03-08T00:57:43.484Z,2.22
2018-03-08T01:00:12.532Z,1.75
2018-03-08T01:02:42.275Z,2.03
2018-03-08T01:05:12.155Z,1.98
2018-03-08T01:07:40.082Z,1.85
2018-03-08T01:10:08.133Z,1.83
2018-03-08T01:12:36.215Z,2.30
2018-03-08T01:15:08.064Z,1.95
2018-03-08T01:17:35.857Z,2.15
2018-03-08T01:20:05.296Z,1.85
2018-03-08T01:22:33.052Z,1.67
2018-03-08T01:25:00.536Z,1.75
2018-03-08T01:27:29.090Z,2.10
2018-03-08T01:29:56.809Z,2.00
2018-03-08T01:32:24.427Z,1.80
2018-03-08T01:34:52.157Z,1.85
2018-03-08T01:37:19.656Z,1.80
2018-03-08T01:39:47.148Z,1.92
2018-03-08T01:42:16.488Z,1.95
2018-03-08T01:44:52.514Z,2.10
2018-03-08T01:47:21.722Z,2.05
2018-03-08T01:49:51.751Z,2.30
2018-03-08T01:52:21.149Z,2.03
2018-03-08T01:55:12.763Z,1.90
2018-03-08T01:57:40.516Z,1.92
2018-03-08T02:00:09.185Z,2.00
2018-03-08T02:02:37.993Z,1.73
2018-03-08T02:08:09.369Z,1.80
2018-03-08T02:10:39.006Z,1.50
2018-03-08T02:13:07.258Z,1.70
2018-03-08T02:15:34.850Z,1.50
2018-03-08T02:18:02.422Z,2.00
2018-03-08T02:20:30.830Z,1.73
2018-03-08T02:23:00.159Z,1.75
2018-03-08T02:25:29.985Z,1.75
2018-03-08T02:27:59.874Z,1.92
2018-03-08T02:30:32.071Z,2.45
2018-03-08T02:35:51.332Z,2.05
2018-03-08T02:38:19.751Z,2.42
2018-03-08T02:40:47.289Z,1.80
2018-03-08T02:43:14.811Z,2.20
2018-03-08T02:45:42.369Z,1.70
2018-03-08T02:48:09.890Z,2.70
2018-03-08T02:50:37.435Z,1.87
2018-03-08T02:53:05.666Z,1.92
2018-03-08T02:55:33.190Z,2.87
2018-03-08T02:58:01.181Z,2.65
2018-03-08T03:00:30.316Z,2.65
2018-03-08T03:02:57.942Z,2.25
2018-03-08T03:05:25.577Z,2.60
2018-03-08T03:07:53.393Z,2.00
2018-03-08T03:10:21.288Z,2.10
2018-03-08T03:12:49.354Z,2.25
2018-03-08T03:15:16.920Z,2.22
2018-03-08T03:17:44.417Z,2.65
2018-03-08T03:20:12.103Z,2.25
2018-03-08T03:22:40.461Z,2.10
2018-03-08T03:25:10.374Z,1.65
2018-03-08T03:27:38.660Z,1.95
2018-03-08T03:30:07.751Z,1.85
2018-03-08T03:32:35.792Z,2.05
2018-03-08T03:37:58.214Z,2.30
2018-03-08T03:40:27.246Z,2.45
2018-03-08T03:42:54.984Z,2.00
2018-03-08T03:45:26.421Z,2.05
2018-03-08T03:47:53.974Z,1.75
2018-03-08T03:50:21.497Z,1.25
2018-03-08T03:52:50.727Z,1.50
2018-03-08T03:55:19.868Z,1.30
2018-03-08T03:57:47.916Z,1.62
2018-03-08T04:00:15.540Z,1.50
2018-03-08T04:02:44.719Z,2.00
2018-03-08T04:05:13.902Z,1.30
2018-03-08T04:07:41.491Z,1.87
2018-03-08T04:10:10.775Z,1.50
2018-03-08T04:12:40.026Z,1.85
2018-03-08T04:15:11.439Z,1.73
2018-03-08T04:17:39.249Z,1.55
2018-03-08T04:20:08.044Z,2.05
2018-03-08T04:22:37.453Z,1.80
2018-03-08T04:25:08.858Z,1.98
2018-03-08T04:27:38.300Z,2.08
2018-03-08T04:30:06.297Z,1.95
2018-03-08T04:32:33.810Z,2.00
2018-03-08T04:35:01.322Z,1.75
2018-03-08T04:37:28.831Z,1.95
2018-03-08T04:39:56.706Z,2.28
2018-03-08T04:42:24.683Z,1.80
2018-03-08T04:44:53.064Z,2.40
2018-03-08T04:47:20.901Z,2.17
2018-03-08T04:49:48.701Z,2.30
2018-03-08T04:52:17.233Z,2.37
2018-03-08T04:57:37.834Z,2.97
2018-03-08T05:00:05.373Z,3.03
2018-03-08T05:02:33.344Z,2.75
2018-03-08T05:05:00.941Z,2.50
2018-03-08T05:07:28.548Z,3.30
2018-03-08T05:09:56.080Z,3.08
2018-03-08T05:12:23.608Z,3.20
2018-03-08T05:14:51.217Z,3.10
2018-03-08T05:17:19.815Z,2.90
2018-03-08T05:19:47.364Z,2.97
2018-03-08T05:22:14.887Z,3.20
2018-03-08T05:24:42.405Z,3.92
2018-03-08T05:27:10.067Z,3.50
2018-03-08T05:29:37.615Z,4.20
2018-03-08T05:32:05.118Z,3.33
2018-03-08T05:34:32.635Z,3.67
2018-03-08T05:37:00.123Z,4.10
2018-03-08T05:39:27.724Z,4.00
2018-03-08T05:41:55.280Z,3.83
2018-03-08T05:44:23.452Z,3.90
2018-03-08T05:46:51.026Z,4.32
2018-03-08T05:49:18.521Z,3.45
2018-03-08T05:51:46.030Z,4.05
2018-03-08T05:54:13.569Z,3.90
2018-03-08T05:56:41.166Z,4.07
2018-03-08T05:59:08.815Z,3.58
2018-03-08T06:01:36.789Z,4.20
2018-03-08T06:04:04.342Z,3.75
2018-03-08T06:06:31.869Z,4.30
2018-03-08T06:08:59.354Z,4.12
2018-03-08T06:11:26.995Z,4.22
2018-03-08T06:13:54.571Z,3.65
2018-03-08T06:16:22.320Z,3.60
2018-03-08T06:18:49.856Z,3.70
2018-03-08T06:21:17.729Z,3.62
2018-03-08T06:23:46.660Z,4.20
2018-03-08T06:26:14.364Z,3.90
2018-03-08T06:28:41.935Z,3.90
2018-03-08T06:31:10.690Z,3.58
2018-03-08T06:33:38.192Z,3.28
2018-03-08T06:36:07.783Z,3.20
2018-03-08T06:38:35.765Z,2.78
2018-03-08T06:41:03.263Z,2.60
2018-03-08T06:43:30.797Z,3.70
2018-03-08T06:45:58.308Z,2.75
2018-03-08T06:48:26.061Z,3.00
2018-03-08T06:50:53.833Z,3.37
2018-03-08T06:53:21.442Z,2.60
2018-03-08T06:55:49.008Z,3.95
2018-03-08T06:58:16.586Z,5.10
2018-03-08T07:00:48.247Z,3.05
2018-03-08T07:03:16.465Z,2.80
2018-03-08T07:05:44.534Z,2.20
2018-03-08T07:08:14.150Z,2.15
2018-03-08T07:10:41.759Z,2.60
2018-03-08T07:13:09.274Z,2.28
2018-03-08T07:15:39.698Z,1.92
2018-03-08T07:18:07.467Z,2.08
2018-03-08T07:20:34.997Z,4.80
2018-03-08T07:23:02.833Z,4.70
2018-03-08T07:25:31.139Z,1.80
2018-03-08T07:27:58.920Z,2.08
2018-03-08T07:30:26.667Z,2.03
2018-03-08T07:32:54.546Z,2.30
2018-03-08T07:35:22.080Z,2.33
2018-03-08T07:37:51.813Z,5.10
2018-03-08T07:40:19.524Z,2.65
2018-03-08T07:42:47.084Z,2.58
2018-03-08T07:45:14.608Z,3.00
2018-03-08T07:47:42.263Z,2.08
2018-03-08T07:50:09.796Z,2.37
2018-03-08T07:52:37.725Z,1.65
2018-03-08T07:55:05.275Z,2.60
2018-03-08T07:57:32.809Z,1.87
2018-03-08T08:00:00.540Z,2.33
2018-03-08T08:02:28.060Z,3.30
2018-03-08T08:05:07.406Z,1.60
2018-03-08T08:07:51.339Z,1.52
2018-03-08T08:10:20.881Z,2.20
2018-03-08T08:12:48.379Z,2.33
2018-03-08T08:15:16.018Z,2.87
2018-03-08T08:17:43.716Z,3.95
2018-03-08T08:20:11.294Z,1.70
2018-03-08T08:22:38.956Z,1.55
2018-03-08T08:25:06.723Z,2.03
2018-03-08T08:27:34.267Z,1.85
2018-03-08T08:30:01.791Z,1.77
2018-03-08T08:32:29.369Z,1.80
2018-03-08T08:34:56.883Z,1.67
2018-03-08T08:37:24.398Z,1.83
2018-03-08T08:39:51.978Z,1.70
2018-03-08T08:42:19.536Z,1.80
2018-03-08T08:44:47.051Z,1.85
2018-03-08T08:47:14.607Z,1.90
2018-03-08T08:49:42.117Z,1.63
2018-03-08T08:52:11.276Z,1.80
2018-03-08T08:54:39.060Z,2.30
2018-03-08T08:57:06.681Z,1.63
2018-03-08T08:59:34.192Z,1.90
2018-03-08T09:02:02.343Z,1.70
2018-03-08T09:04:30.209Z,1.87
2018-03-08T09:06:57.772Z,1.48
2018-03-08T09:09:25.301Z,1.67
2018-03-08T09:11:52.904Z,1.20
2018-03-08T09:14:20.423Z,1.95
2018-03-08T09:16:47.952Z,1.73
2018-03-08T09:19:15.692Z,1.80
2018-03-08T09:21:43.259Z,1.90
2018-03-08T09:24:10.777Z,1.50
2018-03-08T09:26:38.332Z,6.10
2018-03-08T09:29:05.918Z,2.17
2018-03-08T09:31:33.427Z,1.60
2018-03-08T09:34:00.987Z,1.93
2018-03-08T09:36:28.603Z,2.13
2018-03-08T09:38:56.519Z,2.13
2018-03-08T09:41:24.033Z,1.63
2018-03-08T09:43:52.406Z,2.03
2018-03-08T09:46:20.025Z,1.97
2018-03-08T09:48:47.543Z,1.90
2018-03-08T09:51:17.126Z,1.70
2018-03-08T09:53:44.687Z,2.33
2018-03-08T09:56:12.270Z,1.90
2018-03-08T09:58:39.961Z,1.60
2018-03-08T10:01:07.546Z,3.27
2018-03-08T10:03:35.285Z,1.47
2018-03-08T10:06:03.529Z,1.30
2018-03-08T10:08:31.052Z,1.50
2018-03-08T10:10:58.565Z,1.63
2018-03-08T10:13:29.854Z,1.37
2018-03-08T10:15:57.402Z,1.60
2018-03-08T10:18:25.208Z,1.50
2018-03-08T10:20:52.732Z,1.67
2018-03-08T10:23:23.699Z,2.10
2018-03-08T10:26:00.994Z,2.00
2018-03-08T10:28:28.607Z,1.23
2018-03-08T10:30:56.161Z,2.00
2018-03-08T10:33:23.656Z,1.43
2018-03-08T10:36:09.434Z,1.70
2018-03-08T10:38:39.077Z,1.23
2018-03-08T10:41:07.269Z,1.20
2018-03-08T10:43:35.462Z,1.37
2018-03-08T10:46:03.034Z,0.90
2018-03-08T10:48:31.607Z,1.40
2018-03-08T10:50:59.173Z,2.33
2018-03-08T10:53:27.872Z,1.80
2018-03-08T10:55:56.144Z,1.80
2018-03-08T10:58:25.837Z,1.20
2018-03-08T11:00:55.577Z,1.13
2018-03-08T11:03:53.967Z,1.30
2018-03-08T11:06:27.470Z,1.40
2018-03-08T11:08:56.679Z,1.27
2018-03-08T11:11:25.912Z,1.10
2018-03-08T11:13:54.250Z,1.63
2018-03-08T11:16:23.198Z,1.27
2018-03-08T11:18:51.092Z,1.47
2018-03-08T11:21:20.314Z,1.20
2018-03-08T11:23:49.286Z,1.13
2018-03-08T11:26:16.807Z,1.47
2018-03-08T11:28:44.821Z,1.70
2018-03-08T11:31:12.449Z,1.73
2018-03-08T11:33:39.946Z,1.07
2018-03-08T11:36:07.607Z,1.40
2018-03-08T11:38:36.234Z,1.43
2018-03-08T11:41:04.087Z,1.10
2018-03-08T11:43:31.720Z,1.00
2018-03-08T11:45:59.351Z,1.40
2018-03-08T11:48:26.875Z,1.40
2018-03-08T11:50:54.547Z,1.50
2018-03-08T11:53:22.041Z,2.03
2018-03-08T11:55:49.849Z,1.13
2018-03-08T11:58:17.831Z,1.70
2018-03-08T12:00:45.346Z,1.50
2018-03-08T12:03:12.875Z,1.10
2018-03-08T12:05:40.421Z,1.20
2018-03-08T12:08:08.005Z,1.43
2018-03-08T12:10:36.838Z,1.20
2018-03-08T12:13:05.451Z,1.70
2018-03-08T12:15:32.962Z,1.47
2018-03-08T12:18:00.545Z,1.63
2018-03-08T12:20:28.027Z,1.63
2018-03-08T12:22:55.598Z,1.10
2018-03-08T12:25:23.129Z,1.17
2018-03-08T12:27:50.604Z,0.80
2018-03-08T12:30:18.286Z,1.10
2018-03-08T12:32:45.855Z,1.10
2018-03-08T12:35:13.689Z,1.30
2018-03-08T12:37:41.261Z,1.23
2018-03-08T12:40:08.751Z,1.10
2018-03-08T12:42:36.282Z,1.40
2018-03-08T12:53:52.333Z,1.10
2018-03-08T12:56:20.526Z,0.90
2018-03-08T12:58:49.274Z,1.10
2018-03-08T13:01:16.830Z,1.33
2018-03-08T13:06:49.492Z,1.03
2018-03-08T13:09:17.265Z,0.90
2018-03-08T13:11:44.797Z,1.00
2018-03-08T13:14:13.626Z,0.70
2018-03-08T13:16:41.464Z,0.97
2018-03-08T13:19:08.963Z,1.10
2018-03-08T13:21:37.603Z,1.43
2018-03-08T13:24:05.193Z,1.00
2018-03-08T13:26:32.695Z,1.10
2018-03-08T13:29:00.504Z,0.87
2018-03-08T13:31:28.004Z,1.37
2018-03-08T13:34:00.362Z,1.17
2018-03-08T13:36:27.911Z,1.47
2018-03-08T13:38:55.470Z,1.00
2018-03-08T13:41:23.039Z,1.53
2018-03-08T13:44:12.172Z,1.20
2018-03-08T13:46:41.320Z,1.27
2018-03-08T13:49:20.754Z,1.40
2018-03-08T13:52:02.066Z,1.20
2018-03-08T13:54:30.848Z,1.60
2018-03-08T13:56:58.375Z,3.17
2018-03-08T13:59:26.132Z,1.30
2018-03-08T14:01:53.710Z,1.17
2018-03-08T14:04:21.243Z,1.20
2018-03-08T14:06:48.768Z,1.10
2018-03-08T14:09:16.451Z,1.43
2018-03-08T14:11:44.337Z,0.80
2018-03-08T14:14:11.884Z,0.70
2018-03-08T14:16:41.050Z,0.90
2018-03-08T14:19:09.497Z,1.27
2018-03-08T14:21:37.294Z,1.40
2018-03-08T14:24:05.880Z,1.33
2018-03-08T14:26:33.652Z,1.00
2018-03-08T14:29:01.569Z,1.60
2018-03-08T14:31:30.026Z,0.87
2018-03-08T14:33:57.619Z,1.20
2018-03-08T14:36:25.849Z,1.17
2018-03-08T14:38:53.992Z,1.20
2018-03-08T14:41:21.521Z,0.93
2018-03-08T14:43:49.110Z,1.10
2018-03-08T14:46:16.949Z,1.20
2018-03-08T14:48:45.133Z,0.80
2018-03-08T14:51:13.095Z,1.13
2018-03-08T14:53:40.814Z,1.20
2018-03-08T14:56:09.750Z,0.97
2018-03-08T14:58:37.282Z,1.10
2018-03-08T15:01:06.294Z,1.77
2018-03-08T15:03:34.001Z,1.20
2018-03-08T15:06:01.884Z,0.77
2018-03-08T15:08:29.583Z,1.00
2018-03-08T15:10:57.083Z,0.90
2018-03-08T15:13:24.610Z,1.30
2018-03-08T15:15:52.105Z,1.60
2018-03-08T15:18:19.745Z,1.70
2018-03-08T15:20:47.466Z,1.27
2018-03-08T15:23:15.153Z,1.70
2018-03-08T15:25:43.177Z,1.10
2018-03-08T15:28:10.862Z,1.27
2018-03-08T15:30:38.448Z,1.20
2018-03-08T15:33:06.505Z,1.07
2018-03-08T15:35:34.466Z,1.37
2018-03-08T15:38:02.185Z,1.33
2018-03-08T15:40:29.701Z,1.57
2018-03-08T15:42:57.442Z,1.17
2018-03-08T15:45:25.020Z,1.20
2018-03-08T15:47:53.032Z,1.23
2018-03-08T15:50:20.645Z,1.20
2018-03-08T15:52:48.212Z,0.90
2018-03-08T15:55:15.864Z,1.47
2018-03-08T15:57:43.384Z,1.20
2018-03-08T16:00:10.927Z,1.10
2018-03-08T16:02:38.435Z,1.20
2018-03-08T16:05:08.054Z,0.80
2018-03-08T16:10:36.728Z,1.00
2018-03-08T16:13:04.635Z,1.00
2018-03-08T16:15:32.178Z,0.90
2018-03-08T16:18:00.018Z,1.10
2018-03-08T16:20:28.832Z,1.50
2018-03-08T16:22:57.281Z,1.20
2018-03-08T16:25:24.863Z,0.97
2018-03-08T16:27:52.483Z,0.83
2018-03-08T16:30:21.170Z,0.70
2018-03-08T16:32:49.389Z,0.83
2018-03-08T16:35:19.043Z,0.90
2018-03-08T16:37:46.589Z,0.80
2018-03-08T16:40:14.496Z,1.13
2018-03-08T16:42:43.920Z,0.83
2018-03-08T16:45:11.453Z,1.40
2018-03-08T16:47:38.961Z,1.10
2018-03-08T16:50:06.841Z,1.20
2018-03-08T16:52:34.432Z,1.10
2018-03-08T16:55:02.001Z,1.33
2018-03-08T16:57:29.591Z,1.30
2018-03-08T16:59:58.068Z,1.30
2018-03-08T17:02:25.943Z,1.23
2018-03-08T17:04:54.671Z,1.13
2018-03-08T17:07:22.501Z,1.43
2018-03-08T17:09:50.949Z,1.37
2018-03-08T17:12:20.629Z,1.20
2018-03-08T17:14:48.333Z,1.23
2018-03-08T17:17:15.839Z,1.47
2018-03-08T17:19:43.385Z,1.10
2018-03-08T17:25:07.990Z,1.90
2018-03-08T17:27:35.534Z,1.60
2018-03-08T17:30:03.054Z,1.50
2018-03-08T17:32:30.804Z,2.60
2018-03-08T17:34:58.373Z,1.77
2018-03-08T17:37:26.192Z,1.83
2018-03-08T17:39:54.095Z,1.97
2018-03-08T17:42:21.965Z,2.50
2018-03-08T17:44:51.042Z,2.10
2018-03-08T17:47:19.085Z,1.87
2018-03-08T17:49:46.682Z,1.63
2018-03-08T17:52:15.647Z,1.67
2018-03-08T17:54:43.392Z,2.20
2018-03-08T17:57:11.049Z,2.07
2018-03-08T17:59:38.740Z,1.87
2018-03-08T18:02:06.348Z,1.70
2018-03-08T18:07:33.946Z,2.25
2018-03-08T18:10:08.097Z,1.83
2018-03-08T18:12:36.162Z,1.85
2018-03-08T18:15:07.653Z,1.77
2018-03-08T18:17:35.897Z,2.40
2018-03-08T18:20:03.483Z,2.13
2018-03-08T18:22:31.936Z,2.07
2018-03-08T18:24:59.673Z,2.58
2018-03-08T18:27:27.303Z,1.80
2018-03-08T18:29:54.842Z,2.55
2018-03-08T18:32:25.034Z,2.40
2018-03-08T18:34:53.916Z,2.35
2018-03-08T18:37:23.523Z,2.42
2018-03-08T18:39:51.831Z,2.60
2018-03-08T18:42:29.620Z,2.12
2018-03-08T18:44:57.471Z,2.70
2018-03-08T18:47:28.226Z,2.20
2018-03-08T18:49:57.024Z,1.90
2018-03-08T18:52:25.007Z,2.47
2018-03-08T18:57:56.981Z,2.85
2018-03-08T19:00:24.599Z,2.67
2018-03-08T19:02:52.195Z,2.20
2018-03-08T19:05:22.033Z,2.83
2018-03-08T19:07:49.872Z,3.40
2018-03-08T19:10:36.768Z,2.53
2018-03-08T19:16:09.756Z,2.80
2018-03-08T19:18:38.329Z,2.85
2018-03-08T19:21:11.768Z,2.47
2018-03-08T19:23:42.731Z,2.47
2018-03-08T19:26:12.444Z,2.33
2018-03-08T19:28:40.354Z,2.53
2018-03-08T19:36:56.253Z,2.00
2018-03-08T19:39:29.708Z,2.28
2018-03-08T19:42:04.530Z,2.50
2018-03-08T19:44:33.277Z,2.22
2018-03-08T19:47:12.775Z,2.30
2018-03-08T19:52:37.535Z,2.00
2018-03-08T19:55:05.966Z,2.20
2018-03-08T19:57:48.541Z,2.37
2018-03-08T20:00:16.977Z,2.58
2018-03-08T20:02:46.597Z,2.10
2018-03-08T20:05:36.916Z,3.47
2018-03-08T20:08:08.222Z,4.40
2018-03-08T20:10:35.765Z,2.45
2018-03-08T20:16:08.645Z,1.87
2018-03-08T20:18:37.037Z,3.10
2018-03-08T20:21:04.566Z,1.77
2018-03-08T20:23:44.271Z,2.08
2018-03-08T20:28:58.212Z,2.33
2018-03-08T20:34:32.684Z,2.83
2018-03-08T20:37:00.374Z,1.77
2018-03-08T20:39:29.709Z,2.58
2018-03-08T20:41:58.436Z,1.98
2018-03-08T20:47:41.422Z,4.70
2018-03-08T20:53:07.631Z,1.87
2018-03-08T20:55:37.540Z,1.77
2018-03-08T20:58:05.500Z,1.90
2018-03-08T21:06:23.013Z,1.93
2018-03-08T21:08:52.484Z,1.80
2018-03-08T21:11:21.487Z,2.05
2018-03-08T21:16:48.143Z,2.20
2018-03-08T21:19:15.918Z,1.80
2018-03-08T21:21:46.511Z,1.80
2018-03-08T21:27:13.259Z,1.95
2018-03-08T21:29:44.433Z,1.58
2018-03-08T21:32:12.746Z,1.70
2018-03-08T21:34:46.977Z,1.47
2018-03-08T21:37:14.656Z,1.73
2018-03-08T21:39:43.273Z,2.00
2018-03-08T21:42:10.944Z,1.50
2018-03-08T21:44:48.499Z,2.03
2018-03-08T21:47:36.909Z,1.42
2018-03-08T21:50:04.482Z,1.50
2018-03-08T21:52:32.029Z,1.80
2018-03-08T21:55:03.007Z,1.90
2018-03-08T22:00:37.244Z,1.40
2018-03-08T22:03:04.850Z,1.60
2018-03-08T22:05:32.486Z,1.40
2018-03-08T22:08:00.131Z,2.00
2018-03-08T22:10:27.717Z,2.05
2018-03-08T22:13:12.479Z,2.30
2018-03-08T22:15:40.839Z,2.30
2018-03-08T22:18:09.097Z,3.40
2018-03-08T22:20:37.306Z,5.47
2018-03-08T22:26:01.436Z,5.03
2018-03-08T22:28:41.400Z,5.10
2018-03-08T22:31:09.492Z,5.15
2018-03-08T22:36:37.810Z,3.07
2018-03-08T22:39:05.734Z,3.05
2018-03-08T22:41:38.773Z,2.60
2018-03-08T22:47:13.197Z,2.00
2018-03-08T22:50:06.568Z,2.22
2018-03-08T22:52:36.024Z,2.17
2018-03-08T22:55:03.605Z,1.52
2018-03-08T22:57:31.139Z,1.75
2018-03-08T22:59:58.677Z,1.77
2018-03-08T23:02:31.774Z,1.42
2018-03-08T23:05:03.235Z,1.67
2018-03-08T23:07:30.712Z,1.60
2018-03-08T23:09:58.405Z,1.60
2018-03-08T23:12:25.945Z,1.50
2018-03-08T23:14:53.481Z,1.83
2018-03-08T23:17:21.002Z,1.65
2018-03-08T23:19:48.524Z,1.45
2018-03-08T23:22:16.021Z,1.50
2018-03-08T23:27:46.162Z,1.40
2018-03-08T23:30:13.720Z,1.23
2018-03-08T23:32:41.223Z,1.52
2018-03-08T23:35:08.772Z,1.10
2018-03-08T23:37:36.352Z,1.30
2018-03-08T23:40:03.916Z,1.70
2018-03-08T23:42:31.488Z,1.40
2018-03-08T23:44:59.626Z,1.75
2018-03-08T23:47:27.136Z,1.70
2018-03-08T23:49:54.668Z,1.50
2018-03-08T23:52:22.184Z,1.30
2018-03-08T23:54:49.716Z,1.30
2018-03-08T23:57:17.245Z,1.48
2018-03-08T23:59:44.791Z,1.35
